Time;durP1;ratioP1;P1;durP2;ratioP2;P2;SDS_P1;SDS_P2;PMS_P1;PMS_P2;Temp;Humidity;BMP_temperature;BMP_pressure;BME280_temperature;BME280_humidity;BME280_pressure;Samples;Min_cycle;Max_cycle;Signal;HPM_P1;HPM_P2
2022/09/24 00:01:27;;;;;;;16.27;13.10;;;9.40;99.90;;;;;;5113941;28;20223;-79
2022/09/24 00:03:55;;;;;;;13.23;11.90;;;9.40;99.90;;;;;;5114591;28;20200;-78
2022/09/24 00:06:23;;;;;;;14.73;11.93;;;9.40;99.90;;;;;;5114556;28;20195;-79
2022/09/24 00:08:53;;;;;;;16.77;12.30;;;9.40;99.90;;;;;;5114367;28;20203;-78
2022/09/24 00:11:20;;;;;;;14.13;12.63;;;9.40;99.90;;;;;;5114594;28;20199;-78
2022/09/24 00:13:47;;;;;;;16.60;13.37;;;9.40;99.90;;;;;;5114510;28;20195;-78
2022/09/24 00:16:16;;;;;;;16.57;13.93;;;9.40;99.90;;;;;;5114422;28;20237;-78
2022/09/24 00:18:44;;;;;;;16.60;12.93;;;9.50;99.90;;;;;;5114318;28;20203;-78
2022/09/24 00:21:17;;;;;;;13.70;12.30;;;9.40;99.90;;;;;;5113875;28;20226;-78
2022/09/24 00:23:44;;;;;;;13.93;12.33;;;9.30;99.90;;;;;;5114151;28;20196;-79
2022/09/24 00:28:57;;;;;;;13.77;11.60;;;9.40;99.90;;;;;;5114091;28;20283;-79
2022/09/24 00:31:23;;;;;;;12.40;11.10;;;9.40;99.90;;;;;;5114096;28;20195;-78
2022/09/24 00:33:53;;;;;;;13.87;10.90;;;9.40;99.90;;;;;;5114430;28;20202;-78
2022/09/24 00:36:21;;;;;;;13.23;10.83;;;9.40;99.90;;;;;;5114138;28;20299;-78
2022/09/24 00:38:50;;;;;;;16.60;10.90;;;9.40;99.90;;;;;;5113875;28;20657;-78
2022/09/24 00:41:18;;;;;;;12.87;11.20;;;9.50;99.90;;;;;;5113824;28;20225;-79
2022/09/24 00:43:45;;;;;;;12.27;10.97;;;9.40;99.90;;;;;;5113840;28;20223;-78
2022/09/24 00:46:16;;;;;;;12.73;11.43;;;9.40;99.90;;;;;;5113712;28;20268;-78
2022/09/24 00:48:43;;;;;;;13.03;11.60;;;9.30;99.90;;;;;;5113971;28;20252;-78
2022/09/24 00:51:15;;;;;;;14.87;11.57;;;9.30;99.90;;;;;;5113924;28;20229;-79
2022/09/24 00:53:43;;;;;;;14.07;11.23;;;9.30;99.90;;;;;;5113786;28;20225;-78
2022/09/24 00:56:14;;;;;;;13.80;12.07;;;9.30;99.90;;;;;;5113571;28;20647;-78
2022/09/24 00:58:42;;;;;;;13.10;11.73;;;9.30;99.90;;;;;;5113546;28;20290;-78
2022/09/24 01:01:09;;;;;;;15.37;11.80;;;9.40;99.90;;;;;;5113742;28;20446;-78
2022/09/24 01:03:39;;;;;;;12.70;11.00;;;9.30;99.90;;;;;;5113432;28;20725;-78
2022/09/24 01:06:06;;;;;;;12.47;11.17;;;9.30;99.90;;;;;;5113883;28;20199;-78
2022/09/24 01:08:34;;;;;;;13.20;10.40;;;9.40;99.90;;;;;;5113825;28;20200;-78
2022/09/24 01:11:19;;;;;;;11.43;10.23;;;9.40;99.90;;;;;;5113674;28;20647;-78
2022/09/24 01:14:14;;;;;;;11.57;10.37;;;9.40;99.90;;;;;;5113625;28;20199;-78
2022/09/24 01:16:48;;;;;;;12.17;10.93;;;9.30;99.90;;;;;;5113434;28;20244;-78
2022/09/24 01:19:41;;;;;;;12.27;10.63;;;9.30;99.90;;;;;;5113484;28;20198;-79
2022/09/24 01:22:20;;;;;;;14.00;11.93;;;9.40;99.90;;;;;;5113256;28;20235;-79
2022/09/24 01:25:00;;;;;;;15.20;11.53;;;9.50;99.90;;;;;;5113442;28;20218;-78
2022/09/24 01:27:40;;;;;;;13.63;11.07;;;9.40;99.90;;;;;;5113459;28;20244;-79
2022/09/24 01:30:11;;;;;;;11.80;10.57;;;9.30;99.90;;;;;;5113226;28;20237;-78
2022/09/24 01:32:41;;;;;;;11.70;10.53;;;9.40;99.90;;;;;;5113446;28;20191;-79
2022/09/24 01:35:21;;;;;;;12.17;10.90;;;9.40;99.90;;;;;;5113594;28;20249;-78
2022/09/24 01:37:53;;;;;;;15.17;11.57;;;9.40;99.90;;;;;;5113273;28;20200;-78
2022/09/24 01:40:24;;;;;;;12.00;10.80;;;9.40;99.90;;;;;;5113760;28;20248;-78
2022/09/24 01:42:53;;;;;;;17.77;12.63;;;9.40;99.90;;;;;;5113331;28;20275;-78
2022/09/24 01:45:21;;;;;;;13.87;12.47;;;9.40;99.90;;;;;;5113494;28;20199;-78
2022/09/24 01:47:48;;;;;;;19.40;12.97;;;9.50;99.90;;;;;;5113278;28;20275;-78
2022/09/24 01:50:17;;;;;;;18.70;12.60;;;9.40;99.90;;;;;;5113125;28;20218;-78
2022/09/24 01:52:51;;;;;;;15.53;13.10;;;9.40;99.90;;;;;;5113081;28;20200;-78
2022/09/24 01:55:21;;;;;;;21.90;14.50;;;9.50;99.90;;;;;;5113347;28;20184;-78
2022/09/24 01:57:52;;;;;;;17.27;14.10;;;9.50;99.90;;;;;;5113432;28;20239;-78
2022/09/24 02:00:21;;;;;;;17.10;14.60;;;9.50;99.90;;;;;;5112906;28;20655;-78
2022/09/24 02:02:54;;;;;;;20.17;14.03;;;9.50;99.90;;;;;;5113023;28;20228;-78
2022/09/24 02:05:28;;;;;;;17.30;13.17;;;9.50;99.90;;;;;;5112976;28;20200;-78
2022/09/24 02:08:01;;;;;;;16.57;12.30;;;9.50;99.90;;;;;;5113144;28;20200;-78
2022/09/24 02:10:31;;;;;;;19.20;12.87;;;9.40;99.90;;;;;;5113049;28;20192;-78
2022/09/24 02:13:01;;;;;;;17.30;11.50;;;9.30;99.90;;;;;;5112836;28;20780;-78
2022/09/24 02:15:33;;;;;;;12.40;11.10;;;9.30;99.90;;;;;;5112946;28;20192;-78
2022/09/24 02:18:05;;;;;;;14.07;11.63;;;9.40;99.90;;;;;;5112796;28;20200;-79
2022/09/24 02:20:35;;;;;;;13.83;10.40;;;9.30;99.90;;;;;;5113063;28;20195;-79
2022/09/24 02:23:04;;;;;;;12.93;10.27;;;9.30;99.90;;;;;;5112854;28;20231;-79
2022/09/24 02:25:37;;;;;;;11.73;10.53;;;9.20;99.90;;;;;;5115955;28;20253;-78
2022/09/24 02:28:04;;;;;;;12.40;11.20;;;9.20;99.90;;;;;;5116533;28;20195;-78
2022/09/24 02:30:37;;;;;;;14.07;10.60;;;9.20;99.90;;;;;;5116281;28;20199;-78
2022/09/24 02:34:19;;;;;;;14.30;10.40;;;9.10;99.90;;;;;;5116777;28;20199;-78
2022/09/24 02:35:53;;;;;;;17.07;10.67;;;9.10;99.90;;;;;;5116253;28;20223;-78
2022/09/24 02:38:20;;;;;;;11.80;10.57;;;9.10;99.90;;;;;;5116572;28;20651;-78
2022/09/24 02:40:47;;;;;;;13.37;10.87;;;9.10;99.90;;;;;;5116116;28;20651;-78
2022/09/24 02:43:14;;;;;;;16.03;10.00;;;9.10;99.90;;;;;;5116103;28;20223;-78
2022/09/24 02:45:42;;;;;;;13.87;10.43;;;9.10;99.90;;;;;;5116244;28;20199;-78
2022/09/24 02:48:08;;;;;;;12.27;10.70;;;9.10;99.90;;;;;;5116242;28;20601;-77
2022/09/24 02:50:35;;;;;;;12.47;10.50;;;9.20;99.90;;;;;;5116267;28;20199;-78
2022/09/24 02:53:02;;;;;;;10.47;9.37;;;9.10;99.90;;;;;;5116107;28;20241;-78
2022/09/24 02:55:28;;;;;;;12.07;10.87;;;9.10;99.90;;;;;;5115802;28;20260;-79
2022/09/24 02:57:55;;;;;;;11.70;10.50;;;9.00;99.90;;;;;;5116097;28;20253;-78
2022/09/24 03:00:21;;;;;;;12.30;10.80;;;8.90;99.90;;;;;;5115986;28;20196;-78
2022/09/24 03:02:49;;;;;;;12.07;10.80;;;8.90;99.90;;;;;;5115798;28;20230;-78
2022/09/24 03:05:17;;;;;;;13.63;11.30;;;8.90;99.90;;;;;;5115791;28;20195;-78
2022/09/24 03:07:44;;;;;;;14.10;11.00;;;8.90;99.90;;;;;;5115608;28;20205;-78
2022/09/24 03:10:11;;;;;;;12.27;10.97;;;9.00;99.90;;;;;;5115834;28;20650;-78
2022/09/24 03:12:39;;;;;;;12.30;11.10;;;9.00;99.90;;;;;;5116039;28;20202;-78
2022/09/24 03:15:06;;;;;;;14.13;11.90;;;9.00;99.90;;;;;;5115697;28;20198;-78
2022/09/24 03:17:33;;;;;;;14.80;11.70;;;9.00;99.90;;;;;;5115654;28;20195;-78
2022/09/24 03:20:01;;;;;;;13.90;11.60;;;9.00;99.90;;;;;;5115485;28;20204;-78
2022/09/24 03:22:28;;;;;;;13.20;11.80;;;9.00;99.90;;;;;;5115063;28;20231;-78
2022/09/24 03:24:54;;;;;;;13.60;12.20;;;9.00;99.90;;;;;;5115320;28;20658;-78
2022/09/24 03:27:21;;;;;;;13.63;12.23;;;9.10;99.90;;;;;;5115417;28;20195;-78
2022/09/24 03:32:32;;;;;;;13.03;11.73;;;9.00;99.90;;;;;;5115522;28;20202;-78
2022/09/24 03:35:00;;;;;;;14.73;11.97;;;9.00;99.90;;;;;;5114553;28;20655;-78
2022/09/24 03:37:27;;;;;;;13.47;11.87;;;9.10;99.90;;;;;;5114361;28;20200;-78
2022/09/24 03:39:53;;;;;;;13.40;12.00;;;9.00;99.90;;;;;;5115266;27;20618;-78
2022/09/24 03:42:20;;;;;;;13.87;12.40;;;9.00;99.90;;;;;;5115058;28;20257;-78
2022/09/24 03:44:47;;;;;;;14.17;12.37;;;9.10;99.90;;;;;;5115053;28;20252;-78
2022/09/24 03:47:13;;;;;;;14.87;12.70;;;8.90;99.90;;;;;;5114824;27;20233;-79
2022/09/24 03:49:40;;;;;;;16.63;12.33;;;9.00;99.90;;;;;;5114838;28;20196;-78
2022/09/24 03:52:08;;;;;;;14.73;13.13;;;9.00;99.90;;;;;;5114916;28;20222;-78
2022/09/24 03:54:35;;;;;;;16.53;13.03;;;9.00;99.90;;;;;;5114949;28;20196;-79
2022/09/24 03:57:01;;;;;;;15.67;13.80;;;9.00;99.90;;;;;;5114820;28;20192;-79
2022/09/24 03:59:28;;;;;;;15.93;12.93;;;9.00;99.90;;;;;;5114702;28;20196;-78
2022/09/24 04:01:55;;;;;;;15.17;13.03;;;8.90;99.90;;;;;;5114531;28;20191;-79
2022/09/24 04:04:21;;;;;;;14.37;12.87;;;8.90;99.90;;;;;;5114650;28;20202;-79
2022/09/24 04:06:48;;;;;;;15.67;13.40;;;8.90;99.90;;;;;;5114701;28;20195;-79
2022/09/24 04:09:16;;;;;;;14.90;12.93;;;8.90;99.90;;;;;;5114424;28;20199;-78
2022/09/24 04:11:43;;;;;;;14.83;13.33;;;8.70;99.90;;;;;;5114594;28;20716;-78
2022/09/24 04:14:10;;;;;;;17.53;13.00;;;8.50;99.90;;;;;;5114418;28;20311;-78
2022/09/24 04:16:36;;;;;;;15.27;12.47;;;8.50;99.90;;;;;;5114260;28;20196;-78
2022/09/24 04:19:03;;;;;;;16.30;14.03;;;8.40;99.90;;;;;;5114497;28;20195;-79
2022/09/24 04:21:30;;;;;;;15.90;14.20;;;8.40;99.90;;;;;;5114286;28;20223;-78
2022/09/24 04:23:57;;;;;;;18.03;13.37;;;8.50;99.90;;;;;;5114198;28;20230;-79
2022/09/24 04:26:25;;;;;;;15.97;14.07;;;8.50;99.90;;;;;;5114275;28;20215;-78
2022/09/24 04:28:51;;;;;;;15.80;14.07;;;8.40;99.90;;;;;;5114309;28;20651;-78
2022/09/24 04:31:18;;;;;;;16.40;14.37;;;8.30;99.90;;;;;;5113963;28;20252;-79
2022/09/24 04:33:45;;;;;;;16.60;14.87;;;8.30;99.90;;;;;;5114219;28;20203;-79
2022/09/24 04:36:11;;;;;;;19.87;15.37;;;8.30;99.90;;;;;;5113989;28;20542;-78
2022/09/24 04:38:38;;;;;;;19.40;15.87;;;8.30;99.90;;;;;;5114036;28;20252;-78
2022/09/24 04:41:06;;;;;;;17.07;15.23;;;8.30;99.90;;;;;;5113904;28;20336;-78
2022/09/24 04:43:35;;;;;;;32.83;27.40;;;8.30;99.90;;;;;;5113806;28;20682;-78
2022/09/24 04:46:02;;;;;;;20.63;17.53;;;8.20;99.90;;;;;;5113715;28;20196;-78
2022/09/24 04:48:29;;;;;;;17.43;15.60;;;8.20;99.90;;;;;;5113475;28;20199;-79
2022/09/24 04:50:56;;;;;;;16.90;15.10;;;8.20;99.90;;;;;;5113792;28;20196;-78
2022/09/24 04:53:23;;;;;;;21.07;18.53;;;8.10;99.90;;;;;;5113668;28;20716;-78
2022/09/24 04:55:49;;;;;;;29.20;26.10;;;8.10;99.90;;;;;;5113751;28;20199;-79
2022/09/24 04:58:16;;;;;;;18.20;16.30;;;8.00;99.90;;;;;;5113586;28;20199;-77
2022/09/24 05:00:44;;;;;;;17.30;14.87;;;8.10;99.90;;;;;;5113508;27;20597;-78
2022/09/24 05:03:11;;;;;;;21.17;15.60;;;8.10;99.90;;;;;;5113963;28;20284;-78
2022/09/24 05:05:37;;;;;;;16.80;15.00;;;8.20;99.90;;;;;;5113644;28;20191;-77
2022/09/24 05:08:04;;;;;;;18.43;15.37;;;8.20;99.90;;;;;;5113669;28;20196;-78
2022/09/24 05:10:32;;;;;;;16.80;15.03;;;8.20;99.90;;;;;;5113397;28;20650;-79
2022/09/24 05:12:59;;;;;;;18.07;15.60;;;8.10;99.90;;;;;;5113452;28;20191;-78
2022/09/24 05:15:25;;;;;;;18.23;16.27;;;8.00;99.90;;;;;;5113722;28;20224;-78
2022/09/24 05:17:53;;;;;;;21.60;15.93;;;8.00;99.90;;;;;;5113630;28;20203;-78
2022/09/24 05:20:20;;;;;;;29.20;25.53;;;8.00;99.90;;;;;;5113439;28;20199;-78
2022/09/24 05:22:48;;;;;;;22.43;18.30;;;8.00;99.90;;;;;;5113322;28;20276;-78
2022/09/24 05:25:16;;;;;;;19.83;17.07;;;8.20;99.90;;;;;;5113308;28;20265;-78
2022/09/24 05:27:46;;;;;;;18.70;16.77;;;8.20;99.90;;;;;;5113164;28;20268;-78
2022/09/24 05:30:13;;;;;;;19.13;16.03;;;8.20;99.90;;;;;;5113744;28;20195;-78
2022/09/24 05:32:40;;;;;;;20.17;16.83;;;8.20;99.90;;;;;;5113229;28;20601;-78
2022/09/24 05:35:08;;;;;;;20.63;16.80;;;8.10;99.90;;;;;;5113358;28;20198;-78
2022/09/24 05:37:35;;;;;;;23.13;17.53;;;8.10;99.90;;;;;;5113291;28;20199;-79
2022/09/24 05:40:46;;;;;;;24.37;17.10;;;8.10;99.90;;;;;;5113128;28;20199;-78
2022/09/24 05:42:49;;;;;;;27.40;21.57;;;8.10;99.90;;;;;;5112974;28;20254;-78
2022/09/24 05:45:16;;;;;;;23.73;21.23;;;8.10;99.90;;;;;;5113095;28;20719;-79
2022/09/24 05:47:44;;;;;;;25.73;20.47;;;8.10;99.90;;;;;;5113306;28;20191;-78
2022/09/24 05:50:12;;;;;;;22.93;20.03;;;8.10;99.90;;;;;;5113047;28;20646;-78
2022/09/24 05:52:39;;;;;;;22.57;20.17;;;8.20;99.90;;;;;;5112971;28;20203;-78
2022/09/24 05:55:07;;;;;;;28.77;23.17;;;8.20;99.90;;;;;;5113017;28;20728;-78
2022/09/24 05:57:34;;;;;;;36.83;33.03;;;8.20;99.90;;;;;;5113343;28;20192;-78
2022/09/24 06:00:00;;;;;;;43.47;38.77;;;8.20;99.90;;;;;;5115568;28;20202;-78
2022/09/24 06:02:27;;;;;;;26.53;22.23;;;8.20;99.90;;;;;;5116944;27;20705;-78
2022/09/24 06:04:54;;;;;;;30.30;25.23;;;8.20;99.90;;;;;;5117109;28;20253;-77
2022/09/24 06:07:21;;;;;;;30.83;26.63;;;8.30;99.90;;;;;;5116980;28;20248;-78
2022/09/24 06:09:48;;;;;;;43.30;35.50;;;8.30;99.90;;;;;;5116976;28;20195;-78
2022/09/24 06:12:16;;;;;;;33.83;29.60;;;8.40;99.90;;;;;;5116904;28;20245;-77
2022/09/24 06:14:43;;;;;;;26.60;22.13;;;8.50;99.90;;;;;;5116673;27;20196;-78
2022/09/24 06:17:10;;;;;;;23.03;20.53;;;8.60;99.90;;;;;;5116750;28;20252;-78
2022/09/24 06:19:37;;;;;;;21.93;18.60;;;8.70;99.90;;;;;;5116512;28;20674;-78
2022/09/24 06:22:03;;;;;;;19.97;17.87;;;8.80;99.90;;;;;;5116541;28;20235;-78
2022/09/24 06:24:31;;;;;;;18.93;16.90;;;9.00;99.90;;;;;;5116535;28;20223;-76
2022/09/24 06:26:58;;;;;;;22.47;17.63;;;9.20;99.90;;;;;;5116584;28;20200;-78
2022/09/24 06:29:24;;;;;;;18.03;16.13;;;9.40;99.90;;;;;;5116494;28;20199;-79
2022/09/24 06:31:52;;;;;;;19.23;15.50;;;9.50;99.90;;;;;;5116417;28;20195;-78
2022/09/24 06:34:19;;;;;;;21.53;15.77;;;9.60;99.90;;;;;;5116423;28;20609;-77
2022/09/24 06:36:45;;;;;;;17.23;14.67;;;9.80;99.90;;;;;;5116514;28;20256;-78
2022/09/24 06:39:12;;;;;;;15.13;13.53;;;9.90;99.90;;;;;;5116356;28;20261;-78
2022/09/24 06:41:40;;;;;;;17.33;15.40;;;10.00;99.90;;;;;;5116246;28;20191;-78
2022/09/24 06:44:07;;;;;;;16.60;15.00;;;10.20;99.90;;;;;;5115890;28;20310;-78
2022/09/24 06:46:33;;;;;;;15.30;13.70;;;10.30;99.90;;;;;;5116078;28;20203;-78
2022/09/24 06:49:00;;;;;;;17.17;12.53;;;10.30;99.90;;;;;;5116020;28;20600;-78
2022/09/24 06:51:27;;;;;;;15.90;14.30;;;10.50;99.90;;;;;;5116189;28;20195;-78
2022/09/24 06:53:53;;;;;;;17.47;14.10;;;10.60;99.90;;;;;;5115995;28;20654;-78
2022/09/24 06:56:20;;;;;;;15.20;13.70;;;10.70;99.90;;;;;;5116035;28;20204;-78
2022/09/24 06:58:48;;;;;;;17.77;14.00;;;10.80;99.90;;;;;;5115883;28;20195;-78
2022/09/24 07:01:14;;;;;;;14.60;13.10;;;11.00;99.90;;;;;;5115782;28;20200;-78
2022/09/24 07:03:41;;;;;;;16.73;13.13;;;11.10;99.90;;;;;;5115895;28;20627;-78
2022/09/24 07:06:08;;;;;;;16.90;12.77;;;11.30;99.90;;;;;;5116555;28;20192;-78
2022/09/24 07:08:35;;;;;;;15.83;13.23;;;11.40;99.90;;;;;;5115920;28;20203;-78
2022/09/24 07:11:01;;;;;;;14.47;12.93;;;11.50;99.90;;;;;;5115622;28;20195;-79
2022/09/24 07:13:28;;;;;;;15.10;12.23;;;11.50;99.90;;;;;;5115872;28;20199;-78
2022/09/24 07:15:56;;;;;;;13.70;12.30;;;11.60;99.90;;;;;;5115910;27;20192;-78
2022/09/24 07:18:23;;;;;;;14.77;12.70;;;11.70;99.90;;;;;;5115518;28;20724;-78
2022/09/24 07:20:53;;;;;;;15.87;13.00;;;11.70;99.90;;;;;;5115666;28;20195;-78
2022/09/24 07:23:20;;;;;;;14.27;12.87;;;11.90;99.90;;;;;;5115319;28;20231;-78
2022/09/24 07:25:47;;;;;;;15.83;14.23;;;11.90;99.90;;;;;;5115497;28;20226;-78
2022/09/24 07:28:15;;;;;;;16.40;13.00;;;12.10;99.90;;;;;;5115297;28;20241;-77
2022/09/24 07:30:42;;;;;;;20.43;15.03;;;12.30;99.90;;;;;;5115627;28;20199;-79
2022/09/24 07:33:10;;;;;;;16.70;13.67;;;12.60;99.90;;;;;;5114842;28;20650;-78
2022/09/24 07:35:38;;;;;;;17.30;13.27;;;12.80;99.90;;;;;;5115146;28;20260;-77
2022/09/24 07:38:06;;;;;;;15.63;13.23;;;13.00;99.90;;;;;;5115001;28;20195;-79
2022/09/24 07:40:33;;;;;;;15.33;13.23;;;13.00;99.90;;;;;;5114887;28;20203;-78
2022/09/24 07:43:00;;;;;;;15.83;14.23;;;13.40;99.90;;;;;;5114507;28;20196;-79
2022/09/24 07:45:28;;;;;;;15.40;13.90;;;13.40;99.90;;;;;;5115028;28;20632;-78
2022/09/24 07:47:59;;;;;;;17.27;14.30;;;13.50;99.90;;;;;;5114704;27;20207;-79
2022/09/24 07:50:29;;;;;;;16.40;14.80;;;13.80;99.90;;;;;;5114791;28;20200;-78
2022/09/24 07:52:56;;;;;;;16.07;14.47;;;14.30;99.90;;;;;;5114714;27;20256;-79
2022/09/24 07:55:23;;;;;;;15.90;14.30;;;14.50;99.90;;;;;;5114529;28;20240;-78
2022/09/24 07:57:51;;;;;;;17.03;15.27;;;14.80;99.90;;;;;;5114506;28;20638;-78
2022/09/24 08:00:19;;;;;;;18.27;15.83;;;15.10;99.90;;;;;;5114555;28;20202;-78
2022/09/24 08:02:46;;;;;;;17.40;15.60;;;15.30;99.90;;;;;;5114500;28;20195;-76
2022/09/24 08:05:14;;;;;;;17.65;15.45;;;15.20;99.90;;;;;;5114255;28;20698;-79
2022/09/24 08:07:42;;;;;;;15.93;14.32;;;15.50;99.90;;;;;;5114421;28;20244;-78
2022/09/24 08:10:09;;;;;;;16.58;14.88;;;16.10;99.90;;;;;;5114592;28;20249;-79
2022/09/24 08:12:36;;;;;;;16.38;14.68;;;16.60;99.90;;;;;;5114584;28;20199;-79
2022/09/24 08:15:03;;;;;;;17.33;15.20;;;16.90;99.90;;;;;;5114390;28;20203;-78
2022/09/24 08:17:30;;;;;;;16.80;15.02;;;17.10;99.90;;;;;;5114343;27;20200;-79
2022/09/24 08:19:57;;;;;;;16.75;15.07;;;17.10;99.90;;;;;;5114097;28;20651;-79
2022/09/24 08:22:25;;;;;;;17.48;15.77;;;16.80;99.90;;;;;;5113366;28;20224;-79
2022/09/24 08:24:53;;;;;;;18.23;15.75;;;16.30;99.90;;;;;;5113962;28;20230;-78
2022/09/24 08:27:20;;;;;;;17.55;15.70;;;16.50;99.90;;;;;;5113983;28;20723;-79
2022/09/24 08:29:47;;;;;;;15.95;14.35;;;16.40;99.90;;;;;;5114031;28;20203;-78
2022/09/24 08:32:14;;;;;;;16.10;14.35;;;16.60;99.90;;;;;;5114011;28;20196;-79
2022/09/24 08:34:40;;;;;;;18.05;16.15;;;16.60;99.90;;;;;;5114462;28;20563;-78
2022/09/24 08:37:08;;;;;;;16.10;14.38;;;16.60;99.90;;;;;;5113823;28;20260;-78
2022/09/24 08:39:35;;;;;;;17.95;15.65;;;16.50;99.90;;;;;;5114011;28;20624;-78
2022/09/24 08:42:05;;;;;;;16.58;14.77;;;16.70;99.90;;;;;;5113937;28;20200;-77
2022/09/24 08:47:34;;;;;;;19.10;15.68;;;17.10;99.90;;;;;;5113819;28;20199;-77
2022/09/24 08:50:08;;;;;;;17.50;15.80;;;17.20;99.90;;;;;;5113828;28;20532;-77
2022/09/24 08:52:49;;;;;;;17.95;15.55;;;17.10;99.90;;;;;;5113743;28;20199;-77
2022/09/24 08:55:21;;;;;;;17.83;16.08;;;17.30;99.90;;;;;;5113626;28;20200;-77
2022/09/24 08:57:58;;;;;;;17.33;15.68;;;17.40;99.90;;;;;;5113534;28;20203;-77
2022/09/24 09:00:25;;;;;;;17.77;15.93;;;17.30;99.90;;;;;;5113735;28;20206;-79
2022/09/24 09:02:59;;;;;;;17.83;15.82;;;17.40;99.90;;;;;;5113596;28;20254;-78
2022/09/24 09:05:43;;;;;;;17.65;15.88;;;17.50;99.90;;;;;;5113379;28;20551;-78
2022/09/24 09:08:18;;;;;;;16.55;14.90;;;17.30;99.90;;;;;;5113574;28;20255;-78
2022/09/24 09:10:45;;;;;;;17.17;15.48;;;17.60;99.90;;;;;;5113536;28;20195;-78
2022/09/24 09:13:21;;;;;;;17.30;15.50;;;17.90;99.90;;;;;;5113121;28;20650;-77
2022/09/24 09:16:02;;;;;;;17.85;14.90;;;17.80;99.90;;;;;;5113511;28;20609;-77
2022/09/24 09:18:32;;;;;;;17.23;15.10;;;18.00;99.90;;;;;;5113628;28;20199;-78
2022/09/24 09:21:13;;;;;;;17.35;15.50;;;17.80;99.90;;;;;;5113151;28;20219;-78
2022/09/24 09:23:47;;;;;;;16.95;14.73;;;17.50;99.90;;;;;;5113279;28;20223;-78
2022/09/24 09:26:13;;;;;;;18.17;14.98;;;17.50;99.90;;;;;;5113258;28;20244;-78
2022/09/24 09:28:41;;;;;;;17.08;14.52;;;17.60;99.90;;;;;;5113154;28;20252;-78
2022/09/24 09:31:19;;;;;;;15.75;14.23;;;17.40;99.90;;;;;;5113274;28;20199;-76
2022/09/24 09:34:00;;;;;;;16.00;14.40;;;17.40;99.90;;;;;;5113823;28;20203;-78
2022/09/24 09:36:44;;;;;;;17.00;15.23;;;17.80;99.90;;;;;;5117474;28;20205;-78
2022/09/24 09:39:22;;;;;;;16.58;14.85;;;17.50;99.90;;;;;;5117326;28;20199;-79
2022/09/24 09:41:56;;;;;;;14.25;12.85;;;17.20;99.90;;;;;;5117560;28;20195;-79
2022/09/24 09:44:27;;;;;;;14.98;13.13;;;17.30;99.90;;;;;;5117215;28;20627;-78
2022/09/24 09:47:00;;;;;;;15.80;13.98;;;17.40;99.90;;;;;;5117123;28;20650;-79
2022/09/24 09:49:32;;;;;;;15.07;13.43;;;17.60;99.90;;;;;;5117142;28;20195;-78
2022/09/24 09:52:04;;;;;;;13.70;12.30;;;17.30;99.90;;;;;;5118212;28;20199;-76
2022/09/24 09:54:37;;;;;;;13.90;12.25;;;17.30;99.90;;;;;;5118236;28;20192;-78
2022/09/24 09:57:05;;;;;;;14.25;12.65;;;17.40;99.90;;;;;;5117467;28;20192;-79
2022/09/24 09:59:34;;;;;;;14.93;13.43;;;17.40;99.90;;;;;;5116924;28;20196;-78
2022/09/24 10:02:01;;;;;;;15.32;13.82;;;17.20;99.90;;;;;;5116999;28;20245;-78
2022/09/24 10:04:38;;;;;;;12.85;11.55;;;17.30;99.90;;;;;;5116706;28;20265;-79
2022/09/24 10:07:07;;;;;;;14.15;12.75;;;17.50;99.90;;;;;;5117177;28;20216;-80
2022/09/24 10:09:34;;;;;;;11.55;10.45;;;17.60;99.90;;;;;;5116894;28;20681;-78
2022/09/24 10:12:09;;;;;;;13.07;11.77;;;17.80;99.90;;;;;;5118987;28;20203;-78
2022/09/24 10:14:37;;;;;;;13.70;12.13;;;18.00;99.90;;;;;;5117373;28;20206;-78
2022/09/24 10:17:05;;;;;;;15.15;12.90;;;18.10;99.90;;;;;;5116474;28;20199;-79
2022/09/24 10:19:34;;;;;;;14.63;13.18;;;17.80;99.90;;;;;;5116325;28;20678;-78
2022/09/24 10:22:09;;;;;;;15.60;14.05;;;17.70;99.90;;;;;;5116473;28;20339;-78
2022/09/24 10:24:37;;;;;;;15.07;13.55;;;17.60;99.90;;;;;;5116440;28;20219;-78
2022/09/24 10:27:11;;;;;;;15.63;13.48;;;17.50;99.90;;;;;;5116316;28;20227;-79
2022/09/24 10:32:25;;;;;;;12.70;11.40;;;18.20;99.90;;;;;;5116156;28;20284;-79
2022/09/24 10:34:56;;;;;;;12.90;11.60;;;18.60;99.90;;;;;;5115994;28;20192;-78
2022/09/24 10:37:23;;;;;;;14.90;13.02;;;18.80;99.90;;;;;;5115905;28;20283;-79
2022/09/24 10:39:57;;;;;;;13.75;12.32;;;19.00;99.90;;;;;;5115807;27;20249;-79
2022/09/24 10:42:25;;;;;;;13.75;11.38;;;18.60;99.90;;;;;;5116067;28;20274;-78
2022/09/24 10:44:54;;;;;;;14.13;12.32;;;18.50;99.90;;;;;;5115298;28;20227;-78
2022/09/24 10:47:27;;;;;;;13.50;11.75;;;18.40;99.90;;;;;;5115934;28;20253;-78
2022/09/24 10:50:12;;;;;;;12.10;10.93;;;18.60;99.90;;;;;;5115787;28;20716;-79
2022/09/24 10:52:46;;;;;;;12.32;10.82;;;18.60;99.90;;;;;;5115767;28;20191;-79
2022/09/24 10:55:20;;;;;;;11.95;10.75;;;18.70;99.90;;;;;;5115906;28;20319;-78
2022/09/24 10:58:01;;;;;;;12.57;11.00;;;18.50;99.90;;;;;;5115742;28;20199;-78
2022/09/24 11:00:37;;;;;;;10.52;9.48;;;18.80;99.90;;;;;;5115594;27;20199;-77
2022/09/24 11:03:28;;;;;;;9.82;8.70;;;18.50;99.90;;;;;;5115467;28;20206;-78
2022/09/24 11:06:01;;;;;;;11.38;8.93;;;18.80;99.90;;;;;;5115709;28;20314;-79
2022/09/24 11:08:56;;;;;;;10.65;8.35;;;18.50;99.90;;;;;;5115612;28;20371;-78
2022/09/24 11:11:34;;;;;;;8.75;7.93;;;18.80;99.90;;;;;;5115197;28;20726;-79
2022/09/24 11:14:16;;;;;;;8.43;7.70;;;19.10;99.90;;;;;;5115499;28;20227;-78
2022/09/24 11:17:07;;;;;;;7.53;6.82;;;19.30;99.90;;;;;;5115372;28;20192;-78
2022/09/24 11:20:04;;;;;;;9.02;8.13;;;19.60;99.90;;;;;;5115067;28;20233;-77
2022/09/24 11:22:42;;;;;;;10.50;7.95;;;19.80;99.90;;;;;;5115054;28;20641;-78
2022/09/24 11:25:23;;;;;;;11.05;9.90;;;19.90;99.90;;;;;;5115469;28;20223;-77
2022/09/24 11:28:02;;;;;;;12.40;11.07;;;20.00;99.90;;;;;;5115006;28;20195;-78
2022/09/24 11:30:35;;;;;;;11.90;10.40;;;19.90;99.90;;;;;;5115156;28;20207;-77
2022/09/24 11:33:16;;;;;;;11.90;10.80;;;20.10;99.90;;;;;;5115059;28;20199;-79
2022/09/24 11:35:56;;;;;;;13.15;11.85;;;19.80;99.90;;;;;;5114880;28;20650;-78
2022/09/24 11:38:33;;;;;;;14.23;11.13;;;19.70;99.90;;;;;;5114747;27;20609;-78
2022/09/24 11:41:13;;;;;;;11.82;10.73;;;19.70;99.90;;;;;;5115024;28;20650;-78
2022/09/24 11:44:00;;;;;;;13.80;12.15;;;18.90;99.90;;;;;;5114552;28;20603;-78
2022/09/24 11:46:40;;;;;;;12.43;10.93;;;18.60;99.90;;;;;;5114836;28;20558;-78
2022/09/24 11:49:27;;;;;;;13.73;10.73;;;18.40;99.90;;;;;;5114903;28;20253;-78
2022/09/24 11:52:00;;;;;;;10.10;9.10;;;18.70;99.90;;;;;;5114984;28;20651;-78
2022/09/24 11:54:32;;;;;;;10.98;8.98;;;18.60;99.90;;;;;;5114736;28;20200;-78
2022/09/24 11:57:04;;;;;;;11.40;9.13;;;18.80;99.90;;;;;;5113781;28;20326;-78
2022/09/24 11:59:38;;;;;;;9.68;7.60;;;19.20;99.90;;;;;;5114870;28;20184;-78
2022/09/24 12:02:18;;;;;;;9.32;8.43;;;19.50;99.90;;;;;;5114491;28;20699;-78
2022/09/24 12:04:53;;;;;;;10.13;7.95;;;19.80;99.90;;;;;;5114630;28;20221;-79
2022/09/24 12:07:26;;;;;;;8.85;7.95;;;20.50;99.90;;;;;;5114413;28;20308;-78
2022/09/24 12:09:59;;;;;;;11.13;8.65;;;21.10;99.90;;;;;;5114610;28;20179;-78
2022/09/24 12:12:31;;;;;;;8.15;7.35;;;21.70;99.90;;;;;;5114443;28;20286;-78
2022/09/24 12:15:00;;;;;;;8.43;7.60;;;22.20;99.90;;;;;;5114406;28;20219;-78
2022/09/24 12:17:33;;;;;;;6.38;5.85;;;22.30;99.90;;;;;;5114207;28;20198;-78
2022/09/24 12:20:05;;;;;;;8.13;7.05;;;22.50;99.90;;;;;;5114060;28;20191;-78
2022/09/24 12:22:34;;;;;;;8.18;7.38;;;22.10;99.90;;;;;;5113928;28;20322;-78
2022/09/24 12:25:01;;;;;;;8.60;7.60;;;22.00;99.90;;;;;;5113985;28;20276;-78
2022/09/24 12:27:34;;;;;;;9.55;8.70;;;21.80;99.90;;;;;;5114135;28;20199;-78
2022/09/24 12:33:05;;;;;;;9.32;8.43;;;20.60;99.90;;;;;;5113980;28;20195;-79
2022/09/24 12:35:50;;;;;;;9.40;8.50;;;20.70;99.90;;;;;;5113947;28;20245;-78
2022/09/24 12:38:19;;;;;;;9.13;7.88;;;20.40;99.90;;;;;;5114002;28;20248;-78
2022/09/24 12:41:18;;;;;;;9.90;8.27;;;20.30;99.90;;;;;;5113690;28;20199;-78
2022/09/24 12:43:49;;;;;;;8.63;7.82;;;20.20;99.90;;;;;;5113816;28;20195;-78
2022/09/24 12:46:19;;;;;;;7.70;7.00;;;20.40;99.90;;;;;;5113728;28;20234;-77
2022/09/24 12:48:48;;;;;;;8.57;7.63;;;21.00;99.90;;;;;;5113573;28;20598;-78
2022/09/24 12:51:21;;;;;;;8.70;7.30;;;20.80;99.90;;;;;;5113616;28;20203;-77
2022/09/24 12:53:59;;;;;;;9.13;7.93;;;21.30;99.90;;;;;;5113800;28;20200;-77
2022/09/24 12:56:29;;;;;;;10.60;8.25;;;21.40;99.90;;;;;;5113446;28;20206;-76
2022/09/24 12:58:56;;;;;;;8.15;7.00;;;21.60;99.90;;;;;;5113525;28;20650;-79
2022/09/24 13:01:29;;;;;;;7.70;6.68;;;22.10;99.90;;;;;;5113544;28;20200;-78
2022/09/24 13:04:17;;;;;;;8.32;7.47;;;23.70;99.90;;;;;;5113412;28;20245;-78